Time;durP1;ratioP1;P1;durP2;ratioP2;P2;SDS_P1;SDS_P2;PMS_P1;PMS_P2;Temp;Humidity;BMP_temperature;BMP_pressure;BME280_temperature;BME280_humidity;BME280_pressure;Samples;Min_cycle;Max_cycle;Signal;HPM_P1;HPM_P2
2021/04/19 00:01:33;;;;;;;35.45;17.67;;;;;;;;;;4999584;28;20031;-68
2021/04/19 00:03:59;;;;;;;32.25;18.52;;;;;;;;;;4990222;28;20031;-67
2021/04/19 00:06:25;;;;;;;36.15;18.60;;;;;;;;;;5001781;28;20081;-68
2021/04/19 00:08:51;;;;;;;30.67;17.98;;;;;;;;;;4990006;28;20041;-67
2021/04/19 00:11:17;;;;;;;36.35;17.70;;;;;;;;;;4989504;28;20030;-68
2021/04/19 00:13:43;;;;;;;31.67;18.15;;;;;;;;;;4992277;28;20022;-68
2021/04/19 00:16:09;;;;;;;28.75;17.58;;;;;;;;;;4989684;28;20022;-67
2021/04/19 00:18:35;;;;;;;33.30;18.38;;;;;;;;;;4989002;28;20162;-67
2021/04/19 00:21:01;;;;;;;30.23;18.92;;;;;;;;;;4986158;28;20050;-68
2021/04/19 00:23:27;;;;;;;32.72;19.05;;;;;;;;;;4990207;28;20420;-67
2021/04/19 00:25:53;;;;;;;31.60;17.30;;;;;;;;;;4988489;28;20424;-68
2021/04/19 00:28:18;;;;;;;39.30;18.25;;;;;;;;;;4996593;28;20046;-67
2021/04/19 00:30:44;;;;;;;36.95;19.48;;;;;;;;;;4985400;28;20460;-66
2021/04/19 00:33:10;;;;;;;39.75;21.52;;;;;;;;;;4988831;28;20505;-67
2021/04/19 00:35:36;;;;;;;38.47;22.08;;;;;;;;;;4999854;28;20550;-67
2021/04/19 00:38:03;;;;;;;34.30;20.05;;;;;;;;;;4996952;28;20056;-67
2021/04/19 00:40:31;;;;;;;43.42;22.73;;;;;;;;;;4993090;28;20064;-68
2021/04/19 00:42:57;;;;;;;36.40;22.38;;;;;;;;;;4989370;28;20052;-67
2021/04/19 00:45:24;;;;;;;37.72;20.50;;;;;;;;;;4981803;28;20037;-67
2021/04/19 00:47:50;;;;;;;33.38;20.15;;;;;;;;;;4989617;28;20030;-68
2021/04/19 00:50:20;;;;;;;44.63;20.63;;;;;;;;;;4989486;28;20113;-67
2021/04/19 00:52:47;;;;;;;42.33;22.67;;;;;;;;;;4993466;28;20068;-67
2021/04/19 00:55:14;;;;;;;43.25;23.73;;;;;;;;;;4989565;28;20028;-69
2021/04/19 00:57:40;;;;;;;41.88;20.00;;;;;;;;;;4987138;28;20026;-67
2021/04/19 01:00:10;;;;;;;42.55;20.17;;;;;;;;;;4992539;28;20222;-68
2021/04/19 01:02:36;;;;;;;41.45;22.33;;;;;;;;;;4989421;28;20061;-67
2021/04/19 01:05:02;;;;;;;44.20;23.17;;;;;;;;;;4988814;28;20027;-67
2021/04/19 01:07:28;;;;;;;42.13;22.40;;;;;;;;;;4988131;28;20030;-67
2021/04/19 01:09:54;;;;;;;45.33;21.52;;;;;;;;;;4988823;28;20496;-67
2021/04/19 01:12:20;;;;;;;45.60;21.95;;;;;;;;;;4989513;28;20028;-67
2021/04/19 01:14:46;;;;;;;41.35;23.00;;;;;;;;;;4994008;28;20034;-67
2021/04/19 01:17:11;;;;;;;42.78;24.80;;;;;;;;;;4993867;28;20030;-67
2021/04/19 01:19:37;;;;;;;46.40;24.10;;;;;;;;;;4996065;28;20037;-68
2021/04/19 01:22:03;;;;;;;47.95;24.98;;;;;;;;;;4990515;28;20038;-67
2021/04/19 01:24:29;;;;;;;40.03;22.92;;;;;;;;;;4993342;28;20152;-67
2021/04/19 01:26:55;;;;;;;46.53;23.65;;;;;;;;;;4986387;28;20057;-69
2021/04/19 01:29:21;;;;;;;38.33;23.45;;;;;;;;;;4999972;28;20038;-70
2021/04/19 01:31:47;;;;;;;41.78;24.52;;;;;;;;;;4987195;28;20641;-69
2021/04/19 01:34:13;;;;;;;50.58;23.63;;;;;;;;;;4988546;28;20281;-69
2021/04/19 01:36:39;;;;;;;44.30;24.20;;;;;;;;;;4984740;28;20388;-69
2021/04/19 01:39:05;;;;;;;43.80;25.58;;;;;;;;;;4988716;28;20503;-69
2021/04/19 01:41:31;;;;;;;39.30;22.92;;;;;;;;;;4981810;28;20132;-69
2021/04/19 01:43:57;;;;;;;41.85;23.50;;;;;;;;;;4988633;28;20513;-69
2021/04/19 01:46:23;;;;;;;43.92;23.98;;;;;;;;;;4988677;28;20030;-68
2021/04/19 01:48:50;;;;;;;43.10;24.42;;;;;;;;;;4988535;28;20369;-69
2021/04/19 01:51:15;;;;;;;41.33;24.83;;;;;;;;;;4988965;28;20034;-69
2021/04/19 01:53:41;;;;;;;42.08;23.55;;;;;;;;;;4986629;28;20022;-69
2021/04/19 01:56:07;;;;;;;50.05;26.98;;;;;;;;;;4989984;28;20057;-69
2021/04/19 01:58:34;;;;;;;46.80;24.85;;;;;;;;;;4995347;28;20065;-68
2021/04/19 02:01:01;;;;;;;51.33;27.75;;;;;;;;;;4986442;28;20031;-69
2021/04/19 02:03:29;;;;;;;43.47;25.88;;;;;;;;;;4988422;28;20492;-69
2021/04/19 02:05:55;;;;;;;48.97;25.95;;;;;;;;;;4993659;28;20030;-69
2021/04/19 02:08:40;;;;;;;47.38;25.50;;;;;;;;;;4998795;28;20060;-69
2021/04/19 02:11:24;;;;;;;53.03;27.70;;;;;;;;;;4994145;28;20050;-68
2021/04/19 02:13:58;;;;;;;49.75;26.08;;;;;;;;;;4987030;28;20034;-68
2021/04/19 02:16:39;;;;;;;55.08;29.48;;;;;;;;;;4985754;28;20479;-69
2021/04/19 02:19:18;;;;;;;50.35;29.80;;;;;;;;;;4987749;28;20453;-69
2021/04/19 02:22:02;;;;;;;50.13;28.33;;;;;;;;;;4982690;28;20027;-68
2021/04/19 02:24:30;;;;;;;50.88;28.10;;;;;;;;;;4983978;28;20089;-69
2021/04/19 02:26:58;;;;;;;49.17;30.00;;;;;;;;;;5001661;28;20026;-69
2021/04/19 02:29:32;;;;;;;53.75;27.83;;;;;;;;;;4986760;28;20546;-68
2021/04/19 02:32:03;;;;;;;53.78;29.05;;;;;;;;;;4986270;28;20034;-69
2021/04/19 02:34:30;;;;;;;47.30;27.58;;;;;;;;;;4993179;28;20026;-68
2021/04/19 02:36:57;;;;;;;47.83;29.15;;;;;;;;;;4997534;28;20041;-69
2021/04/19 02:39:24;;;;;;;52.95;29.50;;;;;;;;;;4995374;28;20371;-69
2021/04/19 02:41:51;;;;;;;63.20;32.60;;;;;;;;;;4993991;28;20045;-68
2021/04/19 02:44:20;;;;;;;59.53;30.85;;;;;;;;;;4991627;28;20502;-67
2021/04/19 02:46:47;;;;;;;60.53;31.02;;;;;;;;;;4991701;28;20022;-68
2021/04/19 02:49:13;;;;;;;54.03;30.10;;;;;;;;;;4992055;28;20030;-69
2021/04/19 02:51:42;;;;;;;64.25;34.53;;;;;;;;;;4990698;28;20022;-69
2021/04/19 02:54:09;;;;;;;52.60;30.58;;;;;;;;;;4986510;28;20042;-68
2021/04/19 02:56:35;;;;;;;57.05;31.65;;;;;;;;;;4991607;28;20026;-69
2021/04/19 02:59:04;;;;;;;57.47;31.58;;;;;;;;;;4989401;28;20115;-69
2021/04/19 03:01:31;;;;;;;65.63;33.17;;;;;;;;;;4991810;28;20785;-69
2021/04/19 03:03:59;;;;;;;62.42;31.92;;;;;;;;;;4987987;28;20042;-68
2021/04/19 03:06:25;;;;;;;67.47;34.00;;;;;;;;;;4991751;28;20025;-69
2021/04/19 03:08:53;;;;;;;58.35;31.98;;;;;;;;;;4991870;28;20030;-69
2021/04/19 03:11:28;;;;;;;64.30;32.95;;;;;;;;;;4994581;28;20498;-69
2021/04/19 03:13:56;;;;;;;66.15;33.97;;;;;;;;;;4995817;28;20034;-69
2021/04/19 03:16:24;;;;;;;66.00;34.00;;;;;;;;;;4991823;28;20027;-69
2021/04/19 03:18:51;;;;;;;66.45;35.25;;;;;;;;;;4991530;28;20034;-68
2021/04/19 03:21:19;;;;;;;65.40;34.85;;;;;;;;;;4994195;28;20038;-69
2021/04/19 03:23:46;;;;;;;64.25;33.30;;;;;;;;;;4998854;28;20045;-69
2021/04/19 03:26:13;;;;;;;65.18;33.28;;;;;;;;;;4998713;28;20027;-69
2021/04/19 03:28:40;;;;;;;66.00;36.22;;;;;;;;;;5007891;28;20029;-68
2021/04/19 03:31:08;;;;;;;77.22;37.63;;;;;;;;;;5009938;28;20038;-66
2021/04/19 03:33:39;;;;;;;65.07;34.15;;;;;;;;;;5007485;28;20022;-68
2021/04/19 03:36:06;;;;;;;58.78;32.25;;;;;;;;;;5008844;28;20023;-67
2021/04/19 03:38:32;;;;;;;62.08;33.28;;;;;;;;;;5012468;28;20029;-67
2021/04/19 03:40:59;;;;;;;60.25;32.13;;;;;;;;;;5006978;28;20106;-67
2021/04/19 03:43:25;;;;;;;64.28;33.13;;;;;;;;;;5004614;28;20045;-68
2021/04/19 03:45:54;;;;;;;72.38;36.15;;;;;;;;;;5015150;28;20478;-69
2021/04/19 03:48:22;;;;;;;67.60;34.03;;;;;;;;;;5001963;28;20121;-67
2021/04/19 03:50:53;;;;;;;65.95;33.95;;;;;;;;;;4987724;28;20029;-68
2021/04/19 03:53:19;;;;;;;70.43;36.95;;;;;;;;;;4997891;28;20014;-69
2021/04/19 03:55:48;;;;;;;73.43;35.20;;;;;;;;;;4995169;28;20465;-69
2021/04/19 03:58:14;;;;;;;65.95;35.20;;;;;;;;;;4990878;28;20034;-69
2021/04/19 04:00:41;;;;;;;78.13;37.25;;;;;;;;;;5001796;28;20022;-69
2021/04/19 04:03:08;;;;;;;67.15;35.10;;;;;;;;;;4990701;28;20034;-69
2021/04/19 04:05:35;;;;;;;69.10;33.75;;;;;;;;;;4988605;28;20537;-69
2021/04/19 04:08:01;;;;;;;69.82;32.63;;;;;;;;;;4986283;28;20085;-68
2021/04/19 04:10:28;;;;;;;78.53;35.40;;;;;;;;;;4994016;28;20101;-69
2021/04/19 04:12:55;;;;;;;76.10;35.58;;;;;;;;;;4980433;28;20077;-68
2021/04/19 04:15:21;;;;;;;70.78;33.72;;;;;;;;;;4990097;28;20058;-68
2021/04/19 04:17:47;;;;;;;70.25;33.88;;;;;;;;;;4981591;28;20074;-68
2021/04/19 04:20:13;;;;;;;65.25;34.08;;;;;;;;;;4981610;28;20038;-67
2021/04/19 04:22:39;;;;;;;74.90;34.20;;;;;;;;;;4999958;28;20026;-68
2021/04/19 04:25:06;;;;;;;74.30;34.25;;;;;;;;;;4989842;28;20058;-69
2021/04/19 04:27:32;;;;;;;66.95;33.25;;;;;;;;;;4987815;28;20026;-69
2021/04/19 04:29:58;;;;;;;79.68;35.65;;;;;;;;;;4985002;28;20073;-68
2021/04/19 04:32:23;;;;;;;70.38;34.30;;;;;;;;;;4989202;28;20527;-68
2021/04/19 04:34:49;;;;;;;72.55;32.60;;;;;;;;;;4989918;28;20026;-69
2021/04/19 04:37:15;;;;;;;81.43;35.78;;;;;;;;;;4989358;28;20037;-69
2021/04/19 04:39:41;;;;;;;78.15;35.47;;;;;;;;;;4989550;28;20030;-67
2021/04/19 04:42:10;;;;;;;78.68;36.45;;;;;;;;;;4999806;28;20038;-68
2021/04/19 04:44:37;;;;;;;71.90;33.90;;;;;;;;;;4983043;28;20030;-69
2021/04/19 04:47:22;;;;;;;77.88;33.38;;;;;;;;;;4989826;28;20066;-69
2021/04/19 04:50:03;;;;;;;88.00;34.85;;;;;;;;;;4990567;28;20011;-69
2021/04/19 04:52:34;;;;;;;72.38;34.78;;;;;;;;;;4987718;28;20436;-69
2021/04/19 04:55:02;;;;;;;67.53;34.08;;;;;;;;;;4989595;28;20027;-68
2021/04/19 04:57:28;;;;;;;69.75;33.30;;;;;;;;;;4980927;28;20229;-69
2021/04/19 04:59:55;;;;;;;69.32;32.22;;;;;;;;;;4989385;28;20034;-68
2021/04/19 05:02:22;;;;;;;64.97;32.30;;;;;;;;;;4989168;28;20034;-69
2021/04/19 05:04:49;;;;;;;69.13;31.23;;;;;;;;;;4989091;28;20034;-69
2021/04/19 05:07:16;;;;;;;76.47;34.03;;;;;;;;;;4988828;28;20045;-69
2021/04/19 05:09:44;;;;;;;78.75;33.50;;;;;;;;;;4989312;28;20058;-69
2021/04/19 05:12:10;;;;;;;70.95;32.50;;;;;;;;;;4988581;28;20488;-69
2021/04/19 05:14:38;;;;;;;76.53;34.17;;;;;;;;;;4994866;28;20030;-69
2021/04/19 05:17:04;;;;;;;74.63;35.83;;;;;;;;;;4989296;28;20065;-69
2021/04/19 05:19:30;;;;;;;74.90;32.83;;;;;;;;;;4988442;28;20096;-69
2021/04/19 05:21:56;;;;;;;85.13;35.97;;;;;;;;;;4988208;28;20034;-70
2021/04/19 05:24:22;;;;;;;80.45;35.25;;;;;;;;;;4986633;28;20050;-69
2021/04/19 05:26:48;;;;;;;78.95;34.95;;;;;;;;;;4988978;28;20164;-69
2021/04/19 05:29:14;;;;;;;82.45;34.58;;;;;;;;;;4984075;28;20038;-69
2021/04/19 05:31:40;;;;;;;63.45;29.80;;;;;;;;;;4979962;28;20018;-68
2021/04/19 05:34:06;;;;;;;56.17;28.58;;;;;;;;;;4984194;28;20038;-69
2021/04/19 05:36:32;;;;;;;49.50;26.70;;;;;;;;;;4995699;28;20038;-69
2021/04/19 05:38:59;;;;;;;51.17;24.70;;;;;;;;;;4988542;28;20041;-69
2021/04/19 05:41:25;;;;;;;47.97;23.10;;;;;;;;;;4988791;28;20828;-69
2021/04/19 05:43:52;;;;;;;42.63;21.88;;;;;;;;;;4982822;28;20457;-69
2021/04/19 05:46:18;;;;;;;39.97;21.85;;;;;;;;;;4999042;28;20030;-68
2021/04/19 05:48:45;;;;;;;39.78;21.83;;;;;;;;;;4989007;28;20153;-69
2021/04/19 05:51:15;;;;;;;36.55;20.38;;;;;;;;;;4987714;28;20034;-70
2021/04/19 05:53:41;;;;;;;37.08;20.05;;;;;;;;;;4986044;28;20470;-69
2021/04/19 05:56:13;;;;;;;36.67;19.15;;;;;;;;;;4986459;28;20026;-70
2021/04/19 05:58:47;;;;;;;40.17;21.10;;;;;;;;;;4988975;28;20030;-70
2021/04/19 06:01:17;;;;;;;41.80;22.80;;;;;;;;;;4988548;28;20467;-69
2021/04/19 06:04:01;;;;;;;43.08;20.27;;;;;;;;;;4988158;28;20101;-68
2021/04/19 06:06:42;;;;;;;39.92;20.45;;;;;;;;;;4980622;28;20062;-70
2021/04/19 06:09:20;;;;;;;42.00;20.83;;;;;;;;;;4989491;28;20100;-68
2021/04/19 06:11:50;;;;;;;36.08;20.15;;;;;;;;;;4992563;28;20026;-69
2021/04/19 06:14:18;;;;;;;39.08;20.77;;;;;;;;;;4989020;28;20038;-69
2021/04/19 06:16:45;;;;;;;34.33;21.02;;;;;;;;;;4990549;28;20265;-70
2021/04/19 06:19:12;;;;;;;45.22;22.88;;;;;;;;;;4992362;28;20074;-69
2021/04/19 06:21:39;;;;;;;45.95;22.55;;;;;;;;;;4988757;28;20464;-71
2021/04/19 06:24:06;;;;;;;41.05;20.88;;;;;;;;;;4991521;28;20033;-70
2021/04/19 06:26:33;;;;;;;34.42;19.63;;;;;;;;;;4991294;28;20030;-70
2021/04/19 06:28:59;;;;;;;40.28;20.30;;;;;;;;;;4989257;28;20375;-70
2021/04/19 06:31:25;;;;;;;37.63;22.35;;;;;;;;;;4992051;28;20453;-69
2021/04/19 06:34:03;;;;;;;44.40;22.17;;;;;;;;;;4992155;28;20500;-70
2021/04/19 06:36:48;;;;;;;40.30;22.95;;;;;;;;;;4992153;28;20084;-69
2021/04/19 06:39:15;;;;;;;40.33;22.30;;;;;;;;;;4990534;28;20034;-73
2021/04/19 06:41:41;;;;;;;43.30;23.00;;;;;;;;;;4992444;28;20026;-70
2021/04/19 06:44:07;;;;;;;40.67;20.90;;;;;;;;;;4997924;28;20118;-70
2021/04/19 06:46:34;;;;;;;41.67;22.05;;;;;;;;;;4996690;28;20175;-68
2021/04/19 06:49:01;;;;;;;43.25;20.13;;;;;;;;;;4999591;28;20105;-70
2021/04/19 06:51:27;;;;;;;38.53;19.67;;;;;;;;;;5009603;28;20030;-70
2021/04/19 06:53:54;;;;;;;38.55;21.00;;;;;;;;;;4983638;28;20033;-69
2021/04/19 06:56:22;;;;;;;44.03;22.02;;;;;;;;;;4991522;28;20019;-68
2021/04/19 06:58:48;;;;;;;43.10;22.42;;;;;;;;;;4988317;28;20457;-69
2021/04/19 07:01:17;;;;;;;38.50;19.70;;;;;;;;;;4982688;28;20035;-70
2021/04/19 07:03:44;;;;;;;39.85;20.73;;;;;;;;;;4991506;28;20041;-69
2021/04/19 07:06:10;;;;;;;40.58;20.48;;;;;;;;;;4990229;28;20038;-70
2021/04/19 07:08:41;;;;;;;35.65;20.63;;;;;;;;;;5005230;28;20256;-70
2021/04/19 07:11:07;;;;;;;35.92;19.55;;;;;;;;;;4991625;28;20033;-70
2021/04/19 07:13:36;;;;;;;33.22;20.83;;;;;;;;;;4991113;28;20057;-70
2021/04/19 07:16:02;;;;;;;35.88;18.90;;;;;;;;;;4991783;28;20053;-71
2021/04/19 07:18:28;;;;;;;39.05;20.65;;;;;;;;;;4993931;28;20492;-71
2021/04/19 07:20:54;;;;;;;38.13;20.08;;;;;;;;;;4986877;28;20027;-70
2021/04/19 07:23:21;;;;;;;45.15;21.30;;;;;;;;;;4988024;28;20022;-71
2021/04/19 07:25:47;;;;;;;34.90;19.73;;;;;;;;;;4990329;28;20173;-71
2021/04/19 07:28:14;;;;;;;34.30;19.85;;;;;;;;;;4985551;28;20035;-72
2021/04/19 07:30:43;;;;;;;38.83;20.33;;;;;;;;;;4990211;28;20022;-73
2021/04/19 07:33:28;;;;;;;41.97;22.50;;;;;;;;;;4998101;28;20488;-72
2021/04/19 07:35:54;;;;;;;37.35;20.58;;;;;;;;;;4988525;28;20026;-72
2021/04/19 07:38:30;;;;;;;34.85;20.42;;;;;;;;;;4981403;28;20132;-73
2021/04/19 07:40:56;;;;;;;33.15;20.25;;;;;;;;;;4990369;28;20023;-72
2021/04/19 07:43:24;;;;;;;34.63;20.35;;;;;;;;;;4995398;28;20047;-73
2021/04/19 07:46:00;;;;;;;34.95;20.05;;;;;;;;;;4991044;28;20025;-71
2021/04/19 07:48:33;;;;;;;36.22;20.48;;;;;;;;;;4988494;28;20022;-71
2021/04/19 07:51:00;;;;;;;44.92;21.65;;;;;;;;;;4987646;28;20471;-71
2021/04/19 07:53:26;;;;;;;29.42;19.60;;;;;;;;;;4987455;28;20033;-71
2021/04/19 07:55:53;;;;;;;37.17;19.23;;;;;;;;;;4984120;28;20035;-72
2021/04/19 07:58:19;;;;;;;37.08;19.40;;;;;;;;;;4993290;28;20029;-71
2021/04/19 08:00:45;;;;;;;29.48;18.98;;;;;;;;;;4991617;28;20156;-71
2021/04/19 08:03:20;;;;;;;34.28;19.05;;;;;;;;;;4999921;28;20108;-71
2021/04/19 08:05:53;;;;;;;31.77;18.25;;;;;;;;;;4997936;28;20052;-73
2021/04/19 08:08:28;;;;;;;31.17;19.27;;;;;;;;;;5000414;28;20026;-71
2021/04/19 08:11:05;;;;;;;28.70;18.92;;;;;;;;;;4999420;28;20045;-72
2021/04/19 08:13:31;;;;;;;39.60;19.10;;;;;;;;;;4988045;28;20022;-70
2021/04/19 08:16:12;;;;;;;35.42;20.00;;;;;;;;;;4999123;28;20034;-70
2021/04/19 08:18:41;;;;;;;35.05;18.63;;;;;;;;;;4986175;28;20029;-71
2021/04/19 08:21:06;;;;;;;33.83;19.90;;;;;;;;;;4989743;28;20081;-72
2021/04/19 08:23:43;;;;;;;32.38;18.80;;;;;;;;;;4990654;28;20034;-72
2021/04/19 08:26:10;;;;;;;32.60;18.73;;;;;;;;;;4999833;28;20053;-71
2021/04/19 08:28:43;;;;;;;30.75;18.17;;;;;;;;;;4996063;28;20022;-70
2021/04/19 08:31:09;;;;;;;26.40;18.63;;;;;;;;;;4999505;28;20029;-73
2021/04/19 08:33:36;;;;;;;30.50;17.58;;;;;;;;;;4998590;28;20025;-72
2021/04/19 08:36:02;;;;;;;34.47;19.35;;;;;;;;;;4990392;28;20062;-71
2021/04/19 08:38:29;;;;;;;27.45;17.98;;;;;;;;;;4995000;28;20026;-70
2021/04/19 08:40:55;;;;;;;22.77;16.17;;;;;;;;;;4985951;28;20632;-71
2021/04/19 08:43:23;;;;;;;27.25;15.63;;;;;;;;;;4996951;28;20415;-72
2021/04/19 08:45:49;;;;;;;26.88;17.42;;;;;;;;;;5002627;28;20025;-70
2021/04/19 08:48:15;;;;;;;25.08;14.55;;;;;;;;;;5002451;28;20109;-72
2021/04/19 08:50:43;;;;;;;21.17;14.95;;;;;;;;;;5006784;28;20068;-74
2021/04/19 08:53:10;;;;;;;26.90;16.42;;;;;;;;;;5001602;28;20045;-72
2021/04/19 08:55:37;;;;;;;19.63;14.15;;;;;;;;;;4984013;28;20519;-70
2021/04/19 08:58:08;;;;;;;20.75;14.48;;;;;;;;;;4987378;28;20500;-71
2021/04/19 09:00:34;;;;;;;25.30;15.90;;;;;;;;;;4988705;28;20134;-73
2021/04/19 09:03:00;;;;;;;24.40;15.35;;;;;;;;;;4985111;28;20038;-71
2021/04/19 09:05:27;;;;;;;26.77;17.52;;;;;;;;;;4988700;28;20022;-73
2021/04/19 09:08:03;;;;;;;25.92;17.30;;;;;;;;;;4989137;28;20113;-72
2021/04/19 09:10:47;;;;;;;25.95;17.92;;;;;;;;;;4989091;28;20022;-72
2021/04/19 09:13:31;;;;;;;29.85;18.83;;;;;;;;;;4992169;28;20499;-72
2021/04/19 09:16:16;;;;;;;24.35;16.98;;;;;;;;;;4987363;28;20539;-73
2021/04/19 09:19:01;;;;;;;24.75;18.35;;;;;;;;;;4984237;28;20042;-76
2021/04/19 09:21:49;;;;;;;27.58;18.83;;;;;;;;;;4992255;28;20927;-74
2021/04/19 09:24:17;;;;;;;25.67;17.20;;;;;;;;;;4991869;28;20054;-73
2021/04/19 09:26:43;;;;;;;22.38;16.95;;;;;;;;;;4999234;28;20068;-73
2021/04/19 09:29:09;;;;;;;25.55;18.10;;;;;;;;;;4991831;28;20022;-72
2021/04/19 09:31:54;;;;;;;27.02;17.77;;;;;;;;;;4985901;28;20349;-74
2021/04/19 09:34:20;;;;;;;23.90;17.30;;;;;;;;;;4987554;28;20077;-72
2021/04/19 09:36:52;;;;;;;29.33;19.25;;;;;;;;;;4986893;28;20042;-72
2021/04/19 09:39:37;;;;;;;27.85;18.50;;;;;;;;;;4987385;28;20061;-72
2021/04/19 09:42:03;;;;;;;26.30;18.98;;;;;;;;;;4987650;28;20042;-74
2021/04/19 09:44:29;;;;;;;30.70;19.70;;;;;;;;;;5000430;28;20032;-72
2021/04/19 09:46:56;;;;;;;29.55;20.30;;;;;;;;;;4997102;28;20148;-72
2021/04/19 09:49:22;;;;;;;27.48;19.55;;;;;;;;;;4996769;28;20101;-72
2021/04/19 09:51:49;;;;;;;25.30;16.83;;;;;;;;;;4987825;28;20033;-72
2021/04/19 09:54:16;;;;;;;26.17;18.95;;;;;;;;;;5000622;28;20393;-73
2021/04/19 09:56:43;;;;;;;27.58;18.40;;;;;;;;;;4992137;28;20373;-73
2021/04/19 09:59:10;;;;;;;23.17;17.02;;;;;;;;;;5002420;28;20101;-72
2021/04/19 10:01:37;;;;;;;22.23;15.38;;;;;;;;;;4987580;28;20531;-72
2021/04/19 10:04:04;;;;;;;25.27;17.88;;;;;;;;;;4987554;28;20057;-72
2021/04/19 10:06:30;;;;;;;30.13;18.65;;;;;;;;;;4986698;28;20073;-72
2021/04/19 10:08:58;;;;;;;22.95;16.63;;;;;;;;;;4992997;28;20022;-71
2021/04/19 10:11:25;;;;;;;25.15;16.00;;;;;;;;;;4991543;28;20589;-72
2021/04/19 10:13:51;;;;;;;19.25;14.32;;;;;;;;;;4988110;28;20037;-72
2021/04/19 10:16:17;;;;;;;21.05;14.68;;;;;;;;;;4991554;28;20106;-71
2021/04/19 10:18:48;;;;;;;15.75;12.80;;;;;;;;;;4981604;28;20034;-71
2021/04/19 10:21:24;;;;;;;19.52;13.48;;;;;;;;;;4987601;28;20492;-71
2021/04/19 10:23:50;;;;;;;18.33;14.73;;;;;;;;;;4988143;28;20084;-71
2021/04/19 10:26:16;;;;;;;20.38;13.98;;;;;;;;;;4988162;28;20018;-71
2021/04/19 10:28:44;;;;;;;17.08;12.05;;;;;;;;;;4987199;28;20030;-73
2021/04/19 10:31:11;;;;;;;17.80;12.43;;;;;;;;;;4996913;28;20085;-73
2021/04/19 10:33:38;;;;;;;17.48;12.85;;;;;;;;;;4999318;28;20030;-74
2021/04/19 10:36:14;;;;;;;18.80;13.93;;;;;;;;;;4997157;28;20033;-73
2021/04/19 10:38:41;;;;;;;22.55;14.35;;;;;;;;;;4991435;28;20437;-72
2021/04/19 10:41:07;;;;;;;16.85;13.15;;;;;;;;;;4984608;28;20049;-73
2021/04/19 10:43:33;;;;;;;19.33;13.57;;;;;;;;;;4989126;28;20034;-72
2021/04/19 10:45:59;;;;;;;19.55;14.23;;;;;;;;;;4993283;28;20093;-74
2021/04/19 10:48:27;;;;;;;23.48;14.25;;;;;;;;;;4989005;28;20026;-73
2021/04/19 10:50:55;;;;;;;19.98;12.80;;;;;;;;;;4982585;28;20481;-73
2021/04/19 10:53:38;;;;;;;17.27;12.85;;;;;;;;;;4986198;28;20555;-73
2021/04/19 10:56:05;;;;;;;14.98;12.25;;;;;;;;;;4985827;28;20031;-72
2021/04/19 10:58:31;;;;;;;20.33;13.00;;;;;;;;;;4990568;28;20026;-72
2021/04/19 11:00:58;;;;;;;24.20;14.73;;;;;;;;;;4992938;28;20081;-72
2021/04/19 11:03:24;;;;;;;20.10;15.13;;;;;;;;;;4991151;28;20420;-72
2021/04/19 11:05:50;;;;;;;20.75;13.52;;;;;;;;;;4993600;28;20019;-72
2021/04/19 11:08:16;;;;;;;18.48;13.77;;;;;;;;;;4990504;28;20511;-71
2021/04/19 11:10:42;;;;;;;18.33;13.45;;;;;;;;;;4990433;28;20031;-72
2021/04/19 11:13:09;;;;;;;15.88;11.43;;;;;;;;;;4987389;28;20036;-73
2021/04/19 11:15:39;;;;;;;16.88;10.80;;;;;;;;;;4990463;28;20098;-71
2021/04/19 11:18:15;;;;;;;19.08;11.18;;;;;;;;;;4991188;28;20074;-72
2021/04/19 11:20:42;;;;;;;15.35;11.93;;;;;;;;;;4988564;28;20030;-72
2021/04/19 11:23:19;;;;;;;19.20;12.75;;;;;;;;;;4994857;28;20133;-70
2021/04/19 11:25:49;;;;;;;15.32;10.45;;;;;;;;;;5002509;28;20022;-72
2021/04/19 11:28:33;;;;;;;15.65;10.73;;;;;;;;;;5004191;28;20723;-72
2021/04/19 11:31:11;;;;;;;13.73;10.43;;;;;;;;;;4989203;28;20026;-72
2021/04/19 11:33:37;;;;;;;15.38;10.02;;;;;;;;;;5007192;28;20101;-71
2021/04/19 11:36:06;;;;;;;18.08;10.18;;;;;;;;;;4990894;28;20022;-71
2021/04/19 11:38:34;;;;;;;16.95;9.88;;;;;;;;;;4990588;28;20113;-71
2021/04/19 11:41:02;;;;;;;10.82;7.50;;;;;;;;;;4997588;28;20029;-70
2021/04/19 11:43:32;;;;;;;10.68;7.28;;;;;;;;;;5000626;28;20030;-72
2021/04/19 11:45:58;;;;;;;;;;;;;;;;;;5005959;28;20046;-71
2021/04/19 11:48:23;;;;;;;10.02;7.00;;;;;;;;;;4988531;28;20474;-72
2021/04/19 11:50:49;;;;;;;9.10;7.32;;;;;;;;;;4997945;28;20033;-71
2021/04/19 11:53:25;;;;;;;43.60;17.20;;;;;;;;;;4999816;28;20104;-73
2021/04/19 11:55:52;;;;;;;9.38;6.05;;;;;;;;;;4987895;28;20363;-71
2021/04/19 11:58:18;;;;;;;8.07;6.63;;;;;;;;;;5001986;28;20041;-70
2021/04/19 12:00:44;;;;;;;10.57;6.80;;;;;;;;;;4994209;28;20472;-71
2021/04/19 12:03:10;;;;;;;9.60;6.60;;;;;;;;;;4993016;28;20037;-71
2021/04/19 12:05:37;;;;;;;9.70;6.70;;;;;;;;;;4991468;28;20034;-74
2021/04/19 12:08:03;;;;;;;9.93;6.80;;;;;;;;;;4994898;28;20105;-70
2021/04/19 12:10:29;;;;;;;10.70;7.90;;;;;;;;;;4994289;28;20022;-71
2021/04/19 12:12:55;;;;;;;24.23;11.10;;;;;;;;;;4994249;28;20038;-72
2021/04/19 12:15:21;;;;;;;14.10;8.90;;;;;;;;;;4997967;28;20018;-72
2021/04/19 12:17:47;;;;;;;11.20;7.47;;;;;;;;;;4994089;28;20035;-71
2021/04/19 12:20:13;;;;;;;23.77;12.43;;;;;;;;;;4985592;28;20444;-72
2021/04/19 12:22:40;;;;;;;13.40;8.30;;;;;;;;;;4993622;28;20026;-71
2021/04/19 12:25:06;;;;;;;24.55;12.75;;;;;;;;;;4994867;28;20041;-71
2021/04/19 12:27:32;;;;;;;11.43;8.18;;;;;;;;;;4994282;28;20100;-71
2021/04/19 12:29:58;;;;;;;11.95;5.78;;;;;;;;;;4994533;28;20025;-72
2021/04/19 12:32:24;;;;;;;19.10;8.63;;;;;;;;;;4990461;28;20056;-72
2021/04/19 12:34:50;;;;;;;7.75;6.28;;;;;;;;;;4989240;28;20117;-71
2021/04/19 12:37:16;;;;;;;5.38;4.68;;;;;;;;;;4989371;28;20061;-72
2021/04/19 12:39:42;;;;;;;7.80;6.20;;;;;;;;;;4991533;28;20045;-69
2021/04/19 12:42:08;;;;;;;5.70;4.50;;;;;;;;;;4990655;28;20041;-70
2021/04/19 12:44:34;;;;;;;6.72;4.60;;;;;;;;;;4990026;28;20018;-70
2021/04/19 12:47:00;;;;;;;13.02;6.70;;;;;;;;;;4991879;28;20495;-69
2021/04/19 12:49:26;;;;;;;7.05;5.60;;;;;;;;;;4990025;28;20030;-72
2021/04/19 12:51:52;;;;;;;9.18;6.15;;;;;;;;;;4980092;28;20058;-71
2021/04/19 12:54:20;;;;;;;9.25;6.88;;;;;;;;;;4996837;28;20492;-71
2021/04/19 12:56:46;;;;;;;39.25;14.88;;;;;;;;;;4993426;28;20399;-74
2021/04/19 12:59:12;;;;;;;14.50;7.00;;;;;;;;;;5000378;28;20034;-72
2021/04/19 13:01:38;;;;;;;8.18;6.63;;;;;;;;;;4999528;28;20392;-74
2021/04/19 13:04:04;;;;;;;11.05;6.32;;;;;;;;;;4991463;28;20036;-71
2021/04/19 13:06:30;;;;;;;10.20;6.75;;;;;;;;;;5001225;28;20114;-74
2021/04/19 13:08:56;;;;;;;8.43;6.82;;;;;;;;;;4991888;28;20552;-72
2021/04/19 13:11:23;;;;;;;7.53;5.95;;;;;;;;;;4990144;28;20101;-72
2021/04/19 13:13:49;;;;;;;8.05;6.18;;;;;;;;;;4997275;28;20100;-73
2021/04/19 13:16:15;;;;;;;8.85;5.50;;;;;;;;;;4998704;28;20062;-72
2021/04/19 13:18:41;;;;;;;8.68;6.47;;;;;;;;;;4994414;28;20042;-72
2021/04/19 13:21:07;;;;;;;23.80;8.73;;;;;;;;;;4995053;28;20037;-72
2021/04/19 13:23:33;;;;;;;16.23;8.40;;;;;;;;;;4985923;28;20068;-72
2021/04/19 13:25:59;;;;;;;11.35;6.30;;;;;;;;;;4998561;28;20690;-72
2021/04/19 13:28:25;;;;;;;7.22;6.15;;;;;;;;;;4996627;28;20034;-71
2021/04/19 13:30:51;;;;;;;8.52;6.00;;;;;;;;;;4988892;28;20377;-70
2021/04/19 13:33:17;;;;;;;219.55;53.35;;;;;;;;;;4988469;28;20031;-70
2021/04/19 13:35:43;;;;;;;9.82;7.10;;;;;;;;;;4987500;28;20109;-70
2021/04/19 13:38:09;;;;;;;53.72;18.25;;;;;;;;;;4987435;28;20037;-70
2021/04/19 13:40:35;;;;;;;336.88;76.47;;;;;;;;;;4987845;28;20038;-70
2021/04/19 13:43:01;;;;;;;57.03;17.05;;;;;;;;;;4988584;28;20032;-70
2021/04/19 13:45:27;;;;;;;85.72;24.00;;;;;;;;;;4986477;28;20031;-70
2021/04/19 13:47:55;;;;;;;312.23;101.22;;;;;;;;;;4987079;28;20123;-70
2021/04/19 13:50:21;;;;;;;7.32;5.82;;;;;;;;;;4992015;28;20029;-70
2021/04/19 13:52:47;;;;;;;8.65;6.43;;;;;;;;;;4988209;28;20027;-70
2021/04/19 13:55:14;;;;;;;6.20;5.60;;;;;;;;;;4993226;28;20018;-70
2021/04/19 13:57:40;;;;;;;6.72;5.20;;;;;;;;;;4987807;28;20034;-70
2021/04/19 14:00:08;;;;;;;8.57;5.68;;;;;;;;;;4990527;28;20065;-71
2021/04/19 14:02:34;;;;;;;6.07;5.47;;;;;;;;;;4987422;28;20129;-71
2021/04/19 14:05:00;;;;;;;6.43;5.25;;;;;;;;;;4984519;28;20550;-72
2021/04/19 14:07:27;;;;;;;8.60;5.72;;;;;;;;;;4988035;28;20026;-73
2021/04/19 14:09:53;;;;;;;7.38;4.90;;;;;;;;;;4994458;28;20076;-71
2021/04/19 14:12:19;;;;;;;7.55;5.75;;;;;;;;;;4986943;28;20023;-71
2021/04/19 14:14:45;;;;;;;8.02;6.28;;;;;;;;;;4995482;28;20037;-72
2021/04/19 14:17:11;;;;;;;6.68;5.82;;;;;;;;;;4989598;28;20034;-71
2021/04/19 14:19:37;;;;;;;10.13;6.57;;;;;;;;;;4991626;28;20083;-72
2021/04/19 14:22:04;;;;;;;6.72;5.68;;;;;;;;;;4988688;28;20109;-71
2021/04/19 14:24:30;;;;;;;6.57;5.38;;;;;;;;;;4989597;28;20088;-72
2021/04/19 14:26:57;;;;;;;7.03;5.88;;;;;;;;;;4987670;28;20042;-72